createdAt,value
2019-01-18T00:02:30.092Z,1.97
2019-01-18T00:04:59.662Z,1.50
2019-01-18T00:07:29.461Z,2.30
2019-01-18T00:09:59.105Z,7.10
2019-01-18T00:12:28.903Z,3.57
2019-01-18T00:14:59.845Z,1.60
2019-01-18T00:17:29.564Z,2.80
2019-01-18T00:19:59.247Z,2.60
2019-01-18T00:22:28.958Z,1.73
2019-01-18T00:24:59.621Z,3.20
2019-01-18T00:27:29.411Z,2.33
2019-01-18T00:29:59.131Z,4.60
2019-01-18T00:32:30.091Z,2.17
2019-01-18T00:35:01.100Z,2.93
2019-01-18T00:37:32.050Z,2.57
2019-01-18T00:40:01.871Z,1.87
2019-01-18T00:42:34.018Z,2.30
2019-01-18T00:45:07.443Z,1.97
2019-01-18T00:47:37.115Z,2.07
2019-01-18T00:50:08.235Z,1.93
2019-01-18T00:52:38.000Z,4.60
2019-01-18T00:55:09.566Z,1.20
2019-01-18T00:57:40.715Z,2.53
2019-01-18T01:00:16.635Z,1.33
2019-01-18T01:02:46.776Z,2.00
2019-01-18T01:05:18.021Z,3.00
2019-01-18T01:07:47.716Z,1.80
2019-01-18T01:10:17.447Z,3.80
2019-01-18T01:12:47.219Z,2.47
2019-01-18T01:15:19.939Z,3.67
2019-01-18T01:17:50.945Z,2.03
2019-01-18T01:20:22.431Z,2.47
2019-01-18T01:22:52.436Z,3.00
2019-01-18T01:25:22.030Z,1.93
2019-01-18T01:27:51.861Z,3.00
2019-01-18T01:30:24.154Z,2.07
2019-01-18T01:32:54.699Z,3.37
2019-01-18T01:35:26.243Z,2.47
2019-01-18T01:37:56.107Z,3.30
2019-01-18T01:40:27.698Z,2.43
2019-01-18T01:42:57.367Z,2.97
2019-01-18T01:45:28.511Z,1.73
2019-01-18T01:47:58.856Z,2.20
2019-01-18T01:50:29.649Z,4.13
2019-01-18T01:52:59.373Z,4.13
2019-01-18T01:55:30.240Z,2.90
2019-01-18T01:57:59.936Z,2.07
2019-01-18T02:00:30.259Z,2.30
2019-01-18T02:03:01.744Z,6.63
2019-01-18T02:05:31.506Z,2.23
2019-01-18T02:08:01.235Z,1.63
2019-01-18T02:10:30.972Z,2.13
2019-01-18T02:13:00.745Z,2.20
2019-01-18T02:15:31.373Z,3.40
2019-01-18T02:18:04.035Z,3.50
2019-01-18T02:20:33.772Z,2.13
2019-01-18T02:23:05.339Z,5.00
2019-01-18T02:25:34.971Z,3.83
2019-01-18T02:28:06.663Z,2.77
2019-01-18T02:30:36.295Z,2.63
2019-01-18T02:33:06.254Z,3.90
2019-01-18T02:35:35.927Z,7.67
2019-01-18T02:38:06.046Z,3.03
2019-01-18T02:40:35.777Z,3.27
2019-01-18T02:43:05.454Z,2.90
2019-01-18T02:45:37.010Z,4.90
2019-01-18T02:48:06.749Z,2.87
2019-01-18T02:50:36.437Z,4.47
2019-01-18T02:53:06.448Z,3.10
2019-01-18T02:55:36.687Z,7.10
2019-01-18T02:58:06.375Z,3.20
2019-01-18T03:00:37.328Z,5.83
2019-01-18T03:03:07.063Z,4.57
2019-01-18T03:05:38.315Z,4.03
2019-01-18T03:08:07.876Z,3.53
2019-01-18T03:10:37.552Z,3.47
2019-01-18T03:13:07.207Z,3.10
2019-01-18T03:15:36.759Z,5.30
2019-01-18T03:18:06.463Z,3.57
2019-01-18T03:20:36.127Z,3.77
2019-01-18T03:23:05.847Z,5.67
2019-01-18T03:25:35.592Z,6.10
2019-01-18T03:28:05.266Z,2.63
2019-01-18T03:30:37.044Z,6.47
2019-01-18T03:33:08.504Z,6.27
2019-01-18T03:35:38.073Z,2.83
2019-01-18T03:38:07.789Z,3.00
2019-01-18T03:40:37.635Z,2.77
2019-01-18T03:43:07.200Z,4.90
2019-01-18T03:45:36.908Z,3.87
2019-01-18T03:48:06.643Z,4.30
2019-01-18T03:50:36.322Z,3.33
2019-01-18T03:53:06.187Z,3.80
2019-01-18T03:55:35.774Z,2.60
2019-01-18T03:58:06.160Z,4.00
2019-01-18T04:00:35.824Z,2.70
2019-01-18T04:03:05.545Z,4.93
2019-01-18T04:05:36.405Z,4.40
2019-01-18T04:08:07.246Z,4.70
2019-01-18T04:10:36.942Z,6.83
2019-01-18T04:13:06.576Z,3.27
2019-01-18T04:15:36.603Z,6.73
2019-01-18T04:18:06.240Z,3.40
2019-01-18T04:20:35.933Z,5.17
2019-01-18T04:23:08.707Z,4.70
2019-01-18T04:25:39.753Z,2.73
2019-01-18T04:28:09.271Z,5.00
2019-01-18T04:30:38.872Z,5.20
2019-01-18T04:33:08.724Z,4.17
2019-01-18T04:35:39.604Z,2.93
2019-01-18T04:38:12.663Z,4.87
2019-01-18T04:40:42.203Z,3.30
2019-01-18T04:43:12.145Z,2.63
2019-01-18T04:45:41.894Z,3.47
2019-01-18T04:48:12.643Z,2.43
2019-01-18T04:50:42.274Z,4.40
2019-01-18T04:53:13.835Z,4.03
2019-01-18T04:55:43.539Z,3.27
2019-01-18T04:58:15.739Z,3.87
2019-01-18T05:00:45.560Z,2.97
2019-01-18T05:03:15.188Z,4.50
2019-01-18T05:05:44.826Z,2.53
2019-01-18T05:08:14.583Z,4.83
2019-01-18T05:10:44.288Z,3.70
2019-01-18T05:13:15.254Z,2.67
2019-01-18T05:15:44.920Z,1.67
2019-01-18T05:18:14.641Z,2.30
2019-01-18T05:20:44.348Z,2.63
2019-01-18T05:23:14.077Z,1.33
2019-01-18T05:25:44.491Z,3.17
2019-01-18T05:28:14.003Z,1.43
2019-01-18T05:30:47.829Z,2.60
2019-01-18T05:33:16.147Z,2.50
2019-01-18T05:35:45.856Z,2.87
2019-01-18T05:38:15.671Z,2.37
2019-01-18T05:40:48.312Z,1.77
2019-01-18T05:43:21.515Z,2.90
2019-01-18T05:45:51.086Z,5.67
2019-01-18T05:48:22.067Z,3.53
2019-01-18T05:50:54.768Z,2.60
2019-01-18T05:53:26.038Z,4.30
2019-01-18T05:55:55.694Z,1.57
2019-01-18T05:58:25.581Z,1.87
2019-01-18T06:01:02.189Z,3.67
2019-01-18T06:03:33.409Z,5.10
2019-01-18T06:06:03.051Z,4.57
2019-01-18T06:08:32.772Z,2.80
2019-01-18T06:11:02.676Z,3.77
2019-01-18T06:13:32.403Z,3.37
2019-01-18T06:16:02.123Z,4.40
2019-01-18T06:18:31.836Z,4.37
2019-01-18T06:21:02.775Z,2.20
2019-01-18T06:23:32.520Z,10.43
2019-01-18T06:26:03.596Z,4.63
2019-01-18T06:28:33.115Z,3.27
2019-01-18T06:31:02.661Z,4.23
2019-01-18T06:33:34.163Z,6.97
2019-01-18T06:36:04.188Z,5.17
2019-01-18T06:38:34.660Z,5.90
2019-01-18T06:41:31.839Z,7.77
2019-01-18T06:44:01.437Z,3.43
2019-01-18T06:46:31.111Z,3.07
2019-01-18T06:49:01.375Z,5.70
2019-01-18T06:51:31.051Z,3.27
2019-01-18T06:54:00.667Z,6.33
2019-01-18T06:56:30.339Z,4.77
2019-01-18T06:59:00.075Z,5.33
2019-01-18T07:01:30.887Z,5.07
2019-01-18T07:04:01.793Z,6.10
2019-01-18T07:06:31.447Z,4.30
2019-01-18T07:09:01.030Z,6.90
2019-01-18T07:11:31.649Z,6.60
2019-01-18T07:14:03.004Z,9.57
2019-01-18T07:16:32.850Z,5.50
2019-01-18T07:19:02.457Z,8.70
2019-01-18T07:21:32.147Z,9.57
2019-01-18T07:24:01.942Z,6.33
2019-01-18T07:26:31.587Z,6.80
2019-01-18T07:29:01.110Z,9.87
2019-01-18T07:31:30.867Z,7.93
2019-01-18T07:34:01.902Z,8.07
2019-01-18T07:36:33.646Z,7.93
2019-01-18T07:39:03.323Z,10.93
2019-01-18T07:41:34.715Z,6.97
2019-01-18T07:44:04.747Z,8.57
2019-01-18T07:46:34.415Z,9.47
2019-01-18T07:49:05.388Z,6.73
2019-01-18T07:51:37.788Z,8.63
2019-01-18T07:54:07.457Z,9.73
2019-01-18T07:56:37.009Z,7.03
2019-01-18T07:59:08.410Z,5.77
2019-01-18T08:01:38.012Z,6.33
2019-01-18T08:04:07.659Z,7.87
2019-01-18T08:06:37.171Z,7.83
2019-01-18T08:09:09.055Z,6.33
2019-01-18T08:11:40.044Z,8.17
2019-01-18T08:14:09.596Z,8.10
2019-01-18T08:16:39.325Z,8.27
2019-01-18T08:19:08.998Z,6.77
2019-01-18T08:21:38.715Z,6.43
2019-01-18T08:24:08.425Z,8.70
2019-01-18T08:26:38.154Z,8.10
2019-01-18T08:29:07.974Z,6.57
2019-01-18T08:31:37.566Z,7.27
2019-01-18T08:34:07.266Z,7.97
2019-01-18T08:36:39.454Z,4.00
2019-01-18T08:39:11.328Z,10.43
2019-01-18T08:41:40.954Z,7.50
2019-01-18T08:44:10.622Z,10.23
2019-01-18T08:46:40.388Z,10.20
2019-01-18T08:49:10.020Z,7.07
2019-01-18T08:51:39.732Z,8.20
2019-01-18T08:54:09.512Z,6.03
2019-01-18T08:56:39.150Z,6.97
2019-01-18T08:59:08.795Z,6.03
2019-01-18T09:01:38.489Z,6.23
2019-01-18T09:04:09.891Z,4.80
2019-01-18T09:06:39.535Z,8.00
2019-01-18T09:09:09.820Z,6.20
2019-01-18T09:11:39.363Z,5.60
2019-01-18T09:14:09.064Z,6.73
2019-01-18T09:16:38.816Z,4.30
2019-01-18T09:19:11.062Z,6.77
2019-01-18T09:21:40.635Z,5.67
2019-01-18T09:24:10.405Z,5.10
2019-01-18T09:26:40.076Z,6.43
2019-01-18T09:29:10.332Z,7.37
2019-01-18T09:31:42.541Z,6.10
2019-01-18T09:34:11.469Z,5.20
2019-01-18T09:36:42.403Z,8.10
2019-01-18T09:39:13.874Z,4.13
2019-01-18T09:41:44.683Z,4.73
2019-01-18T09:44:16.016Z,9.73
2019-01-18T09:46:46.779Z,4.10
2019-01-18T09:49:16.484Z,7.83
2019-01-18T09:51:47.667Z,4.00
2019-01-18T09:54:20.156Z,4.10
2019-01-18T09:56:52.187Z,4.20
2019-01-18T09:59:21.870Z,7.23
2019-01-18T10:01:53.452Z,3.60
2019-01-18T10:04:24.618Z,7.90
2019-01-18T10:06:55.943Z,4.50
2019-01-18T10:09:25.563Z,6.63
2019-01-18T10:11:55.083Z,4.87
2019-01-18T10:14:24.620Z,7.63
2019-01-18T10:16:54.419Z,7.87
2019-01-18T10:19:25.879Z,7.57
2019-01-18T10:21:55.636Z,6.50
2019-01-18T10:24:25.350Z,6.73
2019-01-18T10:26:55.079Z,5.73
2019-01-18T10:29:28.256Z,6.50
2019-01-18T10:31:57.460Z,8.20
2019-01-18T10:34:27.119Z,6.67
2019-01-18T10:36:56.869Z,7.57
2019-01-18T10:39:26.591Z,4.70
2019-01-18T10:41:56.264Z,7.17
2019-01-18T10:44:27.791Z,8.63
2019-01-18T10:46:57.580Z,9.87
2019-01-18T10:49:29.739Z,7.23
2019-01-18T10:51:59.420Z,7.07
2019-01-18T10:54:29.145Z,8.43
2019-01-18T10:56:59.844Z,5.03
2019-01-18T10:59:29.567Z,7.40
2019-01-18T11:02:07.234Z,6.40
2019-01-18T11:04:32.792Z,9.07
2019-01-18T11:07:02.455Z,8.03
2019-01-18T11:09:33.479Z,6.20
2019-01-18T11:12:03.015Z,5.63
2019-01-18T11:14:32.525Z,8.83
2019-01-18T11:17:03.277Z,6.63
2019-01-18T11:19:34.123Z,7.00
2019-01-18T11:22:06.572Z,9.00
2019-01-18T11:24:36.284Z,8.77
2019-01-18T11:27:05.903Z,5.97
2019-01-18T11:29:35.498Z,7.90
2019-01-18T11:32:05.051Z,8.83
2019-01-18T11:34:35.156Z,6.40
2019-01-18T11:37:05.858Z,6.07
2019-01-18T11:39:35.530Z,8.03
2019-01-18T11:42:05.467Z,6.93
2019-01-18T11:44:35.294Z,5.73
2019-01-18T11:47:05.052Z,5.50
2019-01-18T11:49:34.860Z,5.57
2019-01-18T11:52:05.443Z,7.17
2019-01-18T11:54:36.638Z,9.37
2019-01-18T11:57:06.325Z,10.07
2019-01-18T11:59:39.071Z,7.03
2019-01-18T12:02:15.028Z,15.67
2019-01-18T12:04:40.370Z,8.70
2019-01-18T12:07:11.452Z,7.90
2019-01-18T12:09:41.052Z,10.77
2019-01-18T12:12:10.711Z,6.97
2019-01-18T12:14:41.623Z,5.63
2019-01-18T12:17:13.705Z,9.37
2019-01-18T12:19:44.531Z,10.40
2019-01-18T12:22:14.359Z,9.93
2019-01-18T12:24:44.010Z,7.43
2019-01-18T12:27:14.762Z,7.10
2019-01-18T12:29:44.546Z,11.20
2019-01-18T12:32:14.111Z,8.93
2019-01-18T12:34:45.459Z,8.10
2019-01-18T12:37:15.271Z,9.30
2019-01-18T12:39:44.951Z,31.00
2019-01-18T12:42:14.616Z,10.30
2019-01-18T12:44:44.328Z,8.80
2019-01-18T12:47:14.148Z,11.03
2019-01-18T12:49:43.760Z,5.63
2019-01-18T12:52:13.486Z,7.87
2019-01-18T12:54:43.172Z,6.67
2019-01-18T12:57:12.879Z,8.33
2019-01-18T12:59:42.600Z,10.13
2019-01-18T13:02:12.281Z,6.63
2019-01-18T13:04:41.986Z,8.20
2019-01-18T13:07:11.755Z,6.23
2019-01-18T13:09:41.408Z,7.20
2019-01-18T13:12:11.131Z,5.40
2019-01-18T13:14:40.887Z,7.40
2019-01-18T13:17:10.550Z,9.87
2019-01-18T13:19:40.246Z,7.43
2019-01-18T13:22:10.030Z,7.70
2019-01-18T13:24:39.665Z,8.73
2019-01-18T13:27:09.474Z,8.63
2019-01-18T13:29:39.114Z,12.17
2019-01-18T13:32:10.263Z,12.20
2019-01-18T13:34:39.952Z,11.33
2019-01-18T13:37:09.981Z,5.87
2019-01-18T13:39:42.045Z,6.73
2019-01-18T13:42:11.755Z,7.47
2019-01-18T13:44:43.710Z,7.90
2019-01-18T13:47:18.305Z,6.50
2019-01-18T13:49:46.796Z,10.23
2019-01-18T13:52:16.555Z,11.10
2019-01-18T13:54:47.403Z,9.00
2019-01-18T13:57:16.984Z,8.20
2019-01-18T13:59:46.642Z,9.53
2019-01-18T14:02:16.367Z,6.57
2019-01-18T14:04:46.095Z,8.50
2019-01-18T14:07:15.788Z,10.50
2019-01-18T14:09:46.599Z,8.23
2019-01-18T14:12:16.263Z,6.70
2019-01-18T14:14:47.543Z,6.47
2019-01-18T14:17:17.095Z,8.17
2019-01-18T14:19:48.289Z,4.17
2019-01-18T14:22:17.964Z,8.70
2019-01-18T14:24:47.677Z,5.77
2019-01-18T14:27:18.895Z,4.83
2019-01-18T14:29:50.975Z,8.27
2019-01-18T14:32:22.196Z,5.53
2019-01-18T14:34:51.839Z,6.73
2019-01-18T14:37:23.343Z,6.30
2019-01-18T14:39:54.736Z,7.13
2019-01-18T14:42:24.479Z,13.43
2019-01-18T14:44:55.876Z,10.87
2019-01-18T14:47:26.524Z,8.43
2019-01-18T14:49:56.239Z,10.30
2019-01-18T14:52:25.973Z,6.00
2019-01-18T14:54:55.933Z,11.90
2019-01-18T14:57:29.158Z,9.17
2019-01-18T14:59:58.752Z,8.17
2019-01-18T15:02:32.132Z,6.57
2019-01-18T15:05:04.554Z,7.43
2019-01-18T15:07:34.272Z,7.60
2019-01-18T15:10:05.208Z,13.40
2019-01-18T15:12:35.153Z,8.33
2019-01-18T15:15:06.787Z,5.27
2019-01-18T15:17:37.669Z,6.70
2019-01-18T15:20:10.975Z,10.13
2019-01-18T15:22:43.149Z,7.37
2019-01-18T15:25:12.899Z,7.03
2019-01-18T15:27:42.626Z,8.00
2019-01-18T15:30:16.604Z,5.47
2019-01-18T15:32:46.339Z,8.00
2019-01-18T15:35:19.159Z,9.17
2019-01-18T15:37:48.915Z,7.27
2019-01-18T15:40:22.470Z,9.00
2019-01-18T15:42:54.103Z,7.27
2019-01-18T15:45:23.693Z,10.67
2019-01-18T15:47:53.400Z,5.50
2019-01-18T15:50:34.339Z,8.80
2019-01-18T15:53:05.564Z,8.37
2019-01-18T15:55:36.999Z,7.47
2019-01-18T15:58:08.315Z,7.63
2019-01-18T16:00:48.559Z,11.23
2019-01-18T16:03:19.879Z,12.97
2019-01-18T16:05:52.699Z,10.83
2019-01-18T16:08:22.258Z,8.73
2019-01-18T16:10:51.833Z,13.40
2019-01-18T16:13:21.351Z,9.57
2019-01-18T16:16:13.283Z,6.03
2019-01-18T16:18:44.812Z,13.07
2019-01-18T16:21:15.841Z,7.60
2019-01-18T16:23:46.667Z,8.87
2019-01-18T16:26:16.394Z,7.63
2019-01-18T16:28:47.796Z,6.77
2019-01-18T16:31:18.595Z,7.87
2019-01-18T16:33:49.299Z,10.50
2019-01-18T16:36:20.335Z,10.87
2019-01-18T16:38:50.093Z,9.83
2019-01-18T16:41:19.975Z,9.10
2019-01-18T16:43:49.690Z,10.43
2019-01-18T16:46:22.823Z,7.27
2019-01-18T16:48:53.723Z,11.70
2019-01-18T16:51:25.594Z,10.83
2019-01-18T16:53:55.280Z,11.87
2019-01-18T16:56:26.775Z,9.13
2019-01-18T16:58:56.399Z,10.60
2019-01-18T17:01:26.273Z,11.57
2019-01-18T17:03:57.425Z,9.27
2019-01-18T17:06:26.971Z,11.73
2019-01-18T17:08:56.528Z,12.10
2019-01-18T17:11:26.052Z,13.30
2019-01-18T17:13:57.419Z,11.40
2019-01-18T17:16:26.969Z,10.63
2019-01-18T17:18:57.000Z,9.77
2019-01-18T17:21:26.768Z,10.13
2019-01-18T17:23:57.407Z,13.70
2019-01-18T17:26:29.909Z,11.43
2019-01-18T17:28:59.631Z,18.50
2019-01-18T17:31:29.324Z,19.83
2019-01-18T17:33:59.066Z,19.10
2019-01-18T17:37:08.416Z,26.23
2019-01-18T17:39:52.006Z,16.63
2019-01-18T17:43:07.975Z,14.73
2019-01-18T17:46:18.264Z,11.57
2019-01-18T17:49:19.193Z,10.53
2019-01-18T17:52:32.023Z,11.80
2019-01-18T17:55:12.458Z,11.03
2019-01-18T17:58:19.337Z,16.23
2019-01-18T18:01:35.531Z,14.30
2019-01-18T18:04:53.814Z,12.80
2019-01-18T18:07:53.944Z,18.03
2019-01-18T18:10:54.015Z,14.63
2019-01-18T18:14:06.460Z,11.80
2019-01-18T18:16:58.099Z,11.93
2019-01-18T18:20:09.514Z,13.07
2019-01-18T18:22:54.557Z,11.43
2019-01-18T18:25:51.347Z,11.80
2019-01-18T18:29:03.719Z,12.67
2019-01-18T18:32:35.944Z,14.80
2019-01-18T18:35:47.709Z,16.63
2019-01-18T18:39:05.415Z,17.60
2019-01-18T18:42:14.528Z,14.90
2019-01-18T18:45:16.392Z,14.47
2019-01-18T18:48:20.067Z,14.17
2019-01-18T18:51:27.112Z,18.30
2019-01-18T18:54:43.491Z,15.10
2019-01-18T18:57:58.958Z,11.20
2019-01-18T19:00:55.947Z,13.03
2019-01-18T19:03:57.383Z,12.33
2019-01-18T19:07:05.112Z,16.53
2019-01-18T19:10:21.567Z,18.33
2019-01-18T19:13:24.285Z,15.53
2019-01-18T19:16:19.389Z,13.30
2019-01-18T19:19:31.846Z,9.97
2019-01-18T19:22:35.583Z,15.43
2019-01-18T19:25:51.083Z,12.03
2019-01-18T19:29:09.122Z,16.13
2019-01-18T19:32:24.476Z,18.43
2019-01-18T19:35:31.585Z,12.50
2019-01-18T19:38:24.775Z,14.23
2019-01-18T19:41:28.808Z,18.97
2019-01-18T19:44:15.731Z,13.83
2019-01-18T19:47:26.613Z,17.37
2019-01-18T19:50:32.544Z,19.30
2019-01-18T19:53:34.678Z,19.57
2019-01-18T19:56:57.272Z,23.40
2019-01-18T20:00:05.151Z,19.10
2019-01-18T20:02:46.651Z,19.93
2019-01-18T20:06:06.467Z,17.83
2019-01-18T20:09:03.131Z,17.40
2019-01-18T20:12:31.961Z,20.43
2019-01-18T20:15:26.640Z,16.27
2019-01-18T20:18:19.372Z,14.57
2019-01-18T20:21:10.804Z,15.90
2019-01-18T20:24:16.700Z,13.10
2019-01-18T20:27:30.956Z,12.93
2019-01-18T20:30:39.529Z,14.27
2019-01-18T20:33:50.448Z,16.70
2019-01-18T20:36:55.903Z,16.43
2019-01-18T20:40:02.066Z,17.03
2019-01-18T20:43:07.160Z,13.60
2019-01-18T20:45:54.603Z,15.83
2019-01-18T20:48:54.795Z,17.93
2019-01-18T20:51:56.228Z,16.27
2019-01-18T20:55:15.019Z,11.87
2019-01-18T20:58:10.611Z,13.43
2019-01-18T21:01:42.623Z,17.83
2019-01-18T21:05:05.140Z,15.30
2019-01-18T21:08:24.676Z,15.27
2019-01-18T21:11:24.603Z,18.20
2019-01-18T21:15:05.515Z,17.10
2019-01-18T21:18:02.203Z,18.70
2019-01-18T21:20:46.091Z,15.17
2019-01-18T21:23:39.280Z,16.50
2019-01-18T21:26:46.967Z,15.87
2019-01-18T21:30:11.506Z,14.67
2019-01-18T21:33:37.487Z,13.93
2019-01-18T21:36:53.008Z,16.07
2019-01-18T21:40:06.816Z,14.67
2019-01-18T21:43:12.555Z,15.53
2019-01-18T21:46:41.575Z,12.73
2019-01-18T21:49:49.344Z,14.20
2019-01-18T21:52:35.884Z,12.57
2019-01-18T21:55:51.567Z,13.40
2019-01-18T21:59:03.191Z,13.27
2019-01-18T22:02:19.526Z,12.13
2019-01-18T22:05:35.793Z,14.47
2019-01-18T22:08:52.111Z,11.83
2019-01-18T22:11:55.659Z,10.80
2019-01-18T22:15:08.743Z,9.80
2019-01-18T22:17:52.643Z,8.77
2019-01-18T22:21:11.975Z,11.13
2019-01-18T22:24:01.018Z,9.93
2019-01-18T22:27:07.303Z,11.73
2019-01-18T22:30:03.287Z,11.73
2019-01-18T22:33:33.112Z,10.90
2019-01-18T22:36:40.379Z,12.33
2019-01-18T22:39:30.420Z,17.07
2019-01-18T22:42:28.375Z,13.30
2019-01-18T22:45:38.855Z,12.67
2019-01-18T22:48:38.979Z,16.23
2019-01-18T22:51:52.308Z,15.37
2019-01-18T22:55:02.948Z,12.70
2019-01-18T22:58:12.929Z,12.97
2019-01-18T23:01:23.599Z,14.83
2019-01-18T23:04:35.225Z,11.63
2019-01-18T23:07:26.388Z,10.90
2019-01-18T23:10:31.951Z,14.60
2019-01-18T23:13:41.435Z,11.53
2019-01-18T23:16:59.312Z,10.73
2019-01-18T23:20:16.102Z,12.10
2019-01-18T23:23:23.935Z,11.70
2019-01-18T23:26:17.888Z,10.77
2019-01-18T23:29:40.851Z,10.33
2019-01-18T23:32:51.404Z,9.97
2019-01-18T23:35:43.499Z,9.17
2019-01-18T23:39:09.410Z,10.97
2019-01-18T23:42:07.294Z,11.80
2019-01-18T23:45:21.721Z,10.97
2019-01-18T23:48:09.494Z,10.57
2019-01-18T23:51:09.376Z,11.27
2019-01-18T23:53:48.112Z,11.97
2019-01-18T23:57:16.720Z,9.40
